sensor_id;sensor_type;location;lat;lon;timestamp;P1;durP1;ratioP1;P2;durP2;ratioP2
76745;SDS011;65671;49.976;20.038;2023-03-24T00:00:45;7.68;;;4.97;;
76745;SDS011;65671;49.976;20.038;2023-03-24T00:03:11;8.18;;;4.90;;
76745;SDS011;65671;49.976;20.038;2023-03-24T00:05:37;9.57;;;5.35;;
76745;SDS011;65671;49.976;20.038;2023-03-24T00:08:04;8.93;;;5.20;;
76745;SDS011;65671;49.976;20.038;2023-03-24T00:10:30;7.95;;;5.25;;
76745;SDS011;65671;49.976;20.038;2023-03-24T00:12:58;8.65;;;5.10;;
76745;SDS011;65671;49.976;20.038;2023-03-24T00:15:25;9.63;;;5.93;;
76745;SDS011;65671;49.976;20.038;2023-03-24T00:17:51;8.10;;;4.95;;
76745;SDS011;65671;49.976;20.038;2023-03-24T00:20:19;10.65;;;4.78;;
76745;SDS011;65671;49.976;20.038;2023-03-24T00:22:50;8.95;;;5.32;;
76745;SDS011;65671;49.976;20.038;2023-03-24T00:25:21;7.95;;;5.00;;
76745;SDS011;65671;49.976;20.038;2023-03-24T00:27:49;13.07;;;5.85;;
76745;SDS011;65671;49.976;20.038;2023-03-24T00:30:16;13.00;;;6.70;;
76745;SDS011;65671;49.976;20.038;2023-03-24T00:32:43;11.15;;;6.13;;
76745;SDS011;65671;49.976;20.038;2023-03-24T00:35:10;9.80;;;6.00;;
76745;SDS011;65671;49.976;20.038;2023-03-24T00:37:38;8.18;;;5.35;;
76745;SDS011;65671;49.976;20.038;2023-03-24T00:40:08;8.00;;;5.28;;
76745;SDS011;65671;49.976;20.038;2023-03-24T00:42:40;7.63;;;4.75;;
76745;SDS011;65671;49.976;20.038;2023-03-24T00:45:10;10.55;;;5.13;;
76745;SDS011;65671;49.976;20.038;2023-03-24T00:47:37;6.97;;;5.15;;
76745;SDS011;65671;49.976;20.038;2023-03-24T00:50:04;6.60;;;4.72;;
76745;SDS011;65671;49.976;20.038;2023-03-24T00:52:31;6.32;;;4.50;;
76745;SDS011;65671;49.976;20.038;2023-03-24T00:55:00;6.70;;;4.60;;
76745;SDS011;65671;49.976;20.038;2023-03-24T00:57:28;7.68;;;5.25;;
76745;SDS011;65671;49.976;20.038;2023-03-24T00:59:59;9.48;;;5.55;;
76745;SDS011;65671;49.976;20.038;2023-03-24T01:02:35;8.82;;;5.45;;
76745;SDS011;65671;49.976;20.038;2023-03-24T01:05:00;8.32;;;5.32;;
76745;SDS011;65671;49.976;20.038;2023-03-24T01:07:27;9.25;;;5.38;;
76745;SDS011;65671;49.976;20.038;2023-03-24T01:09:56;6.93;;;4.47;;
76745;SDS011;65671;49.976;20.038;2023-03-24T01:12:23;6.70;;;5.00;;
76745;SDS011;65671;49.976;20.038;2023-03-24T01:14:50;7.75;;;5.22;;
76745;SDS011;65671;49.976;20.038;2023-03-24T01:17:17;6.10;;;4.60;;
76745;SDS011;65671;49.976;20.038;2023-03-24T01:19:43;7.63;;;4.97;;
76745;SDS011;65671;49.976;20.038;2023-03-24T01:22:09;8.32;;;5.07;;
76745;SDS011;65671;49.976;20.038;2023-03-24T01:24:36;7.15;;;4.80;;
76745;SDS011;65671;49.976;20.038;2023-03-24T01:27:02;8.30;;;4.97;;
76745;SDS011;65671;49.976;20.038;2023-03-24T01:29:27;8.10;;;5.43;;
76745;SDS011;65671;49.976;20.038;2023-03-24T01:31:53;8.52;;;5.40;;
76745;SDS011;65671;49.976;20.038;2023-03-24T01:34:18;8.90;;;5.47;;
76745;SDS011;65671;49.976;20.038;2023-03-24T01:36:44;6.68;;;4.78;;
76745;SDS011;65671;49.976;20.038;2023-03-24T01:39:09;9.65;;;5.72;;
76745;SDS011;65671;49.976;20.038;2023-03-24T01:41:36;7.70;;;5.47;;
76745;SDS011;65671;49.976;20.038;2023-03-24T01:47:01;10.20;;;5.40;;
76745;SDS011;65671;49.976;20.038;2023-03-24T01:49:35;7.13;;;4.65;;
76745;SDS011;65671;49.976;20.038;2023-03-24T01:52:07;8.57;;;5.30;;
76745;SDS011;65671;49.976;20.038;2023-03-24T01:54:42;7.85;;;5.35;;
76745;SDS011;65671;49.976;20.038;2023-03-24T01:57:17;8.55;;;5.15;;
76745;SDS011;65671;49.976;20.038;2023-03-24T01:59:48;8.93;;;5.00;;
76745;SDS011;65671;49.976;20.038;2023-03-24T02:02:18;8.18;;;4.68;;
76745;SDS011;65671;49.976;20.038;2023-03-24T02:04:48;8.15;;;5.03;;
76745;SDS011;65671;49.976;20.038;2023-03-24T02:07:28;8.20;;;4.93;;
76745;SDS011;65671;49.976;20.038;2023-03-24T02:10:01;5.90;;;4.65;;
76745;SDS011;65671;49.976;20.038;2023-03-24T02:12:30;9.43;;;5.20;;
76745;SDS011;65671;49.976;20.038;2023-03-24T02:14:56;7.53;;;5.25;;
76745;SDS011;65671;49.976;20.038;2023-03-24T02:25:39;8.73;;;4.90;;
76745;SDS011;65671;49.976;20.038;2023-03-24T02:31:17;6.30;;;4.57;;
76745;SDS011;65671;49.976;20.038;2023-03-24T02:42:31;6.68;;;4.85;;
76745;SDS011;65671;49.976;20.038;2023-03-24T02:50:42;8.05;;;5.30;;
76745;SDS011;65671;49.976;20.038;2023-03-24T02:53:53;7.82;;;4.78;;
76745;SDS011;65671;49.976;20.038;2023-03-24T02:56:12;7.97;;;4.82;;
76745;SDS011;65671;49.976;20.038;2023-03-24T02:58:51;8.18;;;4.70;;
76745;SDS011;65671;49.976;20.038;2023-03-24T03:01:28;7.40;;;4.75;;
76745;SDS011;65671;49.976;20.038;2023-03-24T03:04:10;7.38;;;4.68;;
76745;SDS011;65671;49.976;20.038;2023-03-24T03:06:39;6.50;;;4.40;;
76745;SDS011;65671;49.976;20.038;2023-03-24T03:09:11;6.65;;;4.95;;
76745;SDS011;65671;49.976;20.038;2023-03-24T03:11:41;10.65;;;5.05;;
76745;SDS011;65671;49.976;20.038;2023-03-24T03:14:21;6.20;;;4.60;;
76745;SDS011;65671;49.976;20.038;2023-03-24T03:17:00;7.03;;;4.55;;
76745;SDS011;65671;49.976;20.038;2023-03-24T03:19:33;7.53;;;4.53;;
76745;SDS011;65671;49.976;20.038;2023-03-24T03:22:03;7.45;;;4.88;;
76745;SDS011;65671;49.976;20.038;2023-03-24T03:24:34;6.90;;;4.40;;
76745;SDS011;65671;49.976;20.038;2023-03-24T03:29:39;6.95;;;4.82;;
76745;SDS011;65671;49.976;20.038;2023-03-24T03:32:08;5.60;;;4.07;;
76745;SDS011;65671;49.976;20.038;2023-03-24T03:39:51;6.10;;;4.55;;
76745;SDS011;65671;49.976;20.038;2023-03-24T03:42:34;8.07;;;5.13;;
76745;SDS011;65671;49.976;20.038;2023-03-24T03:45:00;6.15;;;4.30;;
76745;SDS011;65671;49.976;20.038;2023-03-24T03:47:26;8.48;;;4.43;;
76745;SDS011;65671;49.976;20.038;2023-03-24T03:49:52;7.07;;;5.15;;
76745;SDS011;65671;49.976;20.038;2023-03-24T03:52:18;6.32;;;4.78;;
76745;SDS011;65671;49.976;20.038;2023-03-24T03:54:44;7.63;;;4.90;;
76745;SDS011;65671;49.976;20.038;2023-03-24T03:57:11;7.07;;;5.03;;
76745;SDS011;65671;49.976;20.038;2023-03-24T03:59:39;6.43;;;4.50;;
76745;SDS011;65671;49.976;20.038;2023-03-24T04:04:57;6.75;;;4.53;;
76745;SDS011;65671;49.976;20.038;2023-03-24T04:16:05;6.15;;;4.78;;
76745;SDS011;65671;49.976;20.038;2023-03-24T04:21:15;6.20;;;4.65;;
76745;SDS011;65671;49.976;20.038;2023-03-24T04:24:02;7.40;;;5.35;;
76745;SDS011;65671;49.976;20.038;2023-03-24T04:26:44;5.97;;;4.32;;
76745;SDS011;65671;49.976;20.038;2023-03-24T04:32:28;7.22;;;4.80;;
76745;SDS011;65671;49.976;20.038;2023-03-24T04:35:06;8.43;;;5.22;;
76745;SDS011;65671;49.976;20.038;2023-03-24T04:37:44;10.27;;;5.38;;
76745;SDS011;65671;49.976;20.038;2023-03-24T04:40:12;7.70;;;5.07;;
76745;SDS011;65671;49.976;20.038;2023-03-24T04:42:42;8.38;;;5.90;;
76745;SDS011;65671;49.976;20.038;2023-03-24T04:45:12;9.25;;;6.43;;
76745;SDS011;65671;49.976;20.038;2023-03-24T04:47:41;9.10;;;6.25;;
76745;SDS011;65671;49.976;20.038;2023-03-24T04:50:13;11.02;;;6.88;;
76745;SDS011;65671;49.976;20.038;2023-03-24T04:52:54;8.13;;;5.40;;
76745;SDS011;65671;49.976;20.038;2023-03-24T04:57:49;6.88;;;5.38;;
76745;SDS011;65671;49.976;20.038;2023-03-24T05:00:16;8.93;;;5.50;;
76745;SDS011;65671;49.976;20.038;2023-03-24T05:02:42;8.75;;;5.13;;
76745;SDS011;65671;49.976;20.038;2023-03-24T05:05:09;6.80;;;5.00;;
76745;SDS011;65671;49.976;20.038;2023-03-24T05:07:35;9.65;;;5.55;;
76745;SDS011;65671;49.976;20.038;2023-03-24T05:10:01;8.73;;;5.53;;
76745;SDS011;65671;49.976;20.038;2023-03-24T05:12:27;8.48;;;4.90;;
76745;SDS011;65671;49.976;20.038;2023-03-24T05:14:53;7.30;;;5.30;;
76745;SDS011;65671;49.976;20.038;2023-03-24T05:17:19;11.23;;;5.95;;
76745;SDS011;65671;49.976;20.038;2023-03-24T05:19:44;6.15;;;5.40;;
76745;SDS011;65671;49.976;20.038;2023-03-24T05:22:10;8.60;;;5.85;;
76745;SDS011;65671;49.976;20.038;2023-03-24T05:24:35;9.45;;;6.60;;
76745;SDS011;65671;49.976;20.038;2023-03-24T05:27:01;7.97;;;5.80;;
76745;SDS011;65671;49.976;20.038;2023-03-24T05:29:26;8.88;;;5.68;;
76745;SDS011;65671;49.976;20.038;2023-03-24T05:31:52;7.40;;;5.68;;
76745;SDS011;65671;49.976;20.038;2023-03-24T05:34:18;9.27;;;5.68;;
76745;SDS011;65671;49.976;20.038;2023-03-24T05:36:45;8.57;;;6.03;;
76745;SDS011;65671;49.976;20.038;2023-03-24T05:39:10;8.05;;;5.63;;
76745;SDS011;65671;49.976;20.038;2023-03-24T05:41:36;12.15;;;6.63;;
76745;SDS011;65671;49.976;20.038;2023-03-24T05:44:02;10.68;;;6.03;;
76745;SDS011;65671;49.976;20.038;2023-03-24T05:46:27;10.00;;;6.20;;
76745;SDS011;65671;49.976;20.038;2023-03-24T05:48:52;9.88;;;6.22;;
76745;SDS011;65671;49.976;20.038;2023-03-24T05:51:18;8.85;;;5.80;;
76745;SDS011;65671;49.976;20.038;2023-03-24T05:53:43;9.73;;;6.88;;
76745;SDS011;65671;49.976;20.038;2023-03-24T05:56:09;9.88;;;6.90;;
76745;SDS011;65671;49.976;20.038;2023-03-24T05:58:37;12.40;;;6.32;;
76745;SDS011;65671;49.976;20.038;2023-03-24T06:01:09;10.50;;;6.13;;
76745;SDS011;65671;49.976;20.038;2023-03-24T06:03:36;11.75;;;6.65;;
76745;SDS011;65671;49.976;20.038;2023-03-24T06:06:04;10.52;;;6.25;;
76745;SDS011;65671;49.976;20.038;2023-03-24T06:08:32;8.63;;;6.10;;
76745;SDS011;65671;49.976;20.038;2023-03-24T06:10:58;23.40;;;13.80;;
76745;SDS011;65671;49.976;20.038;2023-03-24T06:13:26;13.55;;;6.95;;
76745;SDS011;65671;49.976;20.038;2023-03-24T06:15:53;10.60;;;7.00;;
76745;SDS011;65671;49.976;20.038;2023-03-24T06:18:23;10.90;;;7.00;;
76745;SDS011;65671;49.976;20.038;2023-03-24T06:20:52;10.40;;;6.78;;
76745;SDS011;65671;49.976;20.038;2023-03-24T06:23:21;11.63;;;7.10;;
76745;SDS011;65671;49.976;20.038;2023-03-24T06:25:53;8.50;;;5.95;;
76745;SDS011;65671;49.976;20.038;2023-03-24T06:28:20;8.40;;;5.90;;
76745;SDS011;65671;49.976;20.038;2023-03-24T06:30:47;7.50;;;6.20;;
76745;SDS011;65671;49.976;20.038;2023-03-24T06:33:13;8.88;;;6.18;;
76745;SDS011;65671;49.976;20.038;2023-03-24T06:35:39;7.40;;;5.53;;
76745;SDS011;65671;49.976;20.038;2023-03-24T06:38:05;9.20;;;6.47;;
76745;SDS011;65671;49.976;20.038;2023-03-24T06:40:32;8.90;;;6.20;;
76745;SDS011;65671;49.976;20.038;2023-03-24T06:42:58;9.82;;;6.75;;
76745;SDS011;65671;49.976;20.038;2023-03-24T06:45:24;9.40;;;6.65;;
76745;SDS011;65671;49.976;20.038;2023-03-24T06:47:51;9.15;;;6.63;;
76745;SDS011;65671;49.976;20.038;2023-03-24T06:50:21;10.05;;;6.68;;
76745;SDS011;65671;49.976;20.038;2023-03-24T06:52:51;8.57;;;5.95;;
76745;SDS011;65671;49.976;20.038;2023-03-24T06:55:18;9.63;;;6.45;;
76745;SDS011;65671;49.976;20.038;2023-03-24T06:57:43;10.77;;;6.65;;
76745;SDS011;65671;49.976;20.038;2023-03-24T07:00:09;9.35;;;7.15;;
76745;SDS011;65671;49.976;20.038;2023-03-24T07:02:35;9.98;;;7.00;;
76745;SDS011;65671;49.976;20.038;2023-03-24T07:05:02;9.55;;;7.40;;
76745;SDS011;65671;49.976;20.038;2023-03-24T07:07:33;9.02;;;7.13;;
76745;SDS011;65671;49.976;20.038;2023-03-24T07:10:00;11.02;;;7.68;;
76745;SDS011;65671;49.976;20.038;2023-03-24T07:12:26;11.35;;;7.57;;
76745;SDS011;65671;49.976;20.038;2023-03-24T07:14:52;10.38;;;7.78;;
76745;SDS011;65671;49.976;20.038;2023-03-24T07:17:17;10.95;;;7.85;;
76745;SDS011;65671;49.976;20.038;2023-03-24T07:19:43;12.27;;;8.02;;
76745;SDS011;65671;49.976;20.038;2023-03-24T07:22:10;10.50;;;7.22;;
76745;SDS011;65671;49.976;20.038;2023-03-24T07:24:35;10.80;;;7.30;;
76745;SDS011;65671;49.976;20.038;2023-03-24T07:27:01;9.15;;;7.05;;
76745;SDS011;65671;49.976;20.038;2023-03-24T07:29:27;10.90;;;7.07;;
76745;SDS011;65671;49.976;20.038;2023-03-24T07:31:53;8.50;;;7.18;;
76745;SDS011;65671;49.976;20.038;2023-03-24T07:34:26;9.32;;;7.00;;
76745;SDS011;65671;49.976;20.038;2023-03-24T07:36:52;10.23;;;7.22;;
76745;SDS011;65671;49.976;20.038;2023-03-24T07:39:19;10.88;;;6.65;;
76745;SDS011;65671;49.976;20.038;2023-03-24T07:41:45;8.32;;;6.60;;
76745;SDS011;65671;49.976;20.038;2023-03-24T07:44:11;8.98;;;6.60;;
76745;SDS011;65671;49.976;20.038;2023-03-24T07:46:37;9.70;;;6.45;;
76745;SDS011;65671;49.976;20.038;2023-03-24T07:49:03;9.15;;;6.22;;
76745;SDS011;65671;49.976;20.038;2023-03-24T07:51:30;11.10;;;6.22;;
76745;SDS011;65671;49.976;20.038;2023-03-24T07:53:56;8.73;;;6.80;;
76745;SDS011;65671;49.976;20.038;2023-03-24T07:56:22;9.82;;;6.20;;
76745;SDS011;65671;49.976;20.038;2023-03-24T07:58:48;9.05;;;6.90;;
76745;SDS011;65671;49.976;20.038;2023-03-24T08:01:13;7.68;;;6.13;;
76745;SDS011;65671;49.976;20.038;2023-03-24T08:03:39;7.95;;;6.05;;
76745;SDS011;65671;49.976;20.038;2023-03-24T08:06:08;8.35;;;6.05;;
76745;SDS011;65671;49.976;20.038;2023-03-24T08:08:34;8.23;;;6.05;;
76745;SDS011;65671;49.976;20.038;2023-03-24T08:11:01;8.50;;;6.18;;
76745;SDS011;65671;49.976;20.038;2023-03-24T08:13:28;8.20;;;6.10;;
76745;SDS011;65671;49.976;20.038;2023-03-24T08:15:54;9.48;;;6.05;;
76745;SDS011;65671;49.976;20.038;2023-03-24T08:18:20;9.57;;;5.97;;
76745;SDS011;65671;49.976;20.038;2023-03-24T08:20:53;8.10;;;6.18;;
76745;SDS011;65671;49.976;20.038;2023-03-24T08:23:20;8.88;;;6.20;;
76745;SDS011;65671;49.976;20.038;2023-03-24T08:25:47;7.88;;;6.10;;
76745;SDS011;65671;49.976;20.038;2023-03-24T08:28:13;8.88;;;6.30;;
76745;SDS011;65671;49.976;20.038;2023-03-24T08:30:40;9.38;;;6.25;;
76745;SDS011;65671;49.976;20.038;2023-03-24T08:33:10;9.88;;;6.10;;
76745;SDS011;65671;49.976;20.038;2023-03-24T08:35:38;8.00;;;5.97;;
76745;SDS011;65671;49.976;20.038;2023-03-24T08:38:05;9.50;;;5.70;;
76745;SDS011;65671;49.976;20.038;2023-03-24T08:40:31;8.90;;;6.55;;
76745;SDS011;65671;49.976;20.038;2023-03-24T08:42:59;8.20;;;6.13;;
76745;SDS011;65671;49.976;20.038;2023-03-24T08:45:28;9.05;;;5.53;;
76745;SDS011;65671;49.976;20.038;2023-03-24T08:47:57;8.55;;;5.40;;
76745;SDS011;65671;49.976;20.038;2023-03-24T08:50:27;5.97;;;4.60;;
76745;SDS011;65671;49.976;20.038;2023-03-24T08:52:54;7.85;;;4.80;;
76745;SDS011;65671;49.976;20.038;2023-03-24T08:55:21;6.97;;;5.30;;
76745;SDS011;65671;49.976;20.038;2023-03-24T08:57:47;6.97;;;5.30;;
76745;SDS011;65671;49.976;20.038;2023-03-24T09:00:14;6.38;;;4.97;;
76745;SDS011;65671;49.976;20.038;2023-03-24T09:02:41;8.07;;;5.25;;
76745;SDS011;65671;49.976;20.038;2023-03-24T09:05:07;6.43;;;4.80;;
76745;SDS011;65671;49.976;20.038;2023-03-24T09:07:33;7.65;;;5.45;;
76745;SDS011;65671;49.976;20.038;2023-03-24T09:09:59;6.15;;;5.20;;
76745;SDS011;65671;49.976;20.038;2023-03-24T09:12:25;8.00;;;5.32;;
76745;SDS011;65671;49.976;20.038;2023-03-24T09:14:51;10.20;;;5.55;;
76745;SDS011;65671;49.976;20.038;2023-03-24T09:17:16;7.05;;;5.03;;
76745;SDS011;65671;49.976;20.038;2023-03-24T09:19:42;8.60;;;5.75;;
76745;SDS011;65671;49.976;20.038;2023-03-24T09:22:09;7.50;;;5.45;;
76745;SDS011;65671;49.976;20.038;2023-03-24T09:24:36;6.25;;;4.93;;
76745;SDS011;65671;49.976;20.038;2023-03-24T09:27:01;8.85;;;5.45;;
76745;SDS011;65671;49.976;20.038;2023-03-24T09:29:27;9.32;;;5.43;;
76745;SDS011;65671;49.976;20.038;2023-03-24T09:31:54;7.85;;;5.15;;
76745;SDS011;65671;49.976;20.038;2023-03-24T09:34:21;8.23;;;5.57;;
76745;SDS011;65671;49.976;20.038;2023-03-24T09:36:47;9.43;;;5.63;;
76745;SDS011;65671;49.976;20.038;2023-03-24T09:39:13;7.13;;;5.65;;
76745;SDS011;65671;49.976;20.038;2023-03-24T09:41:41;8.45;;;5.55;;
76745;SDS011;65671;49.976;20.038;2023-03-24T09:44:24;8.07;;;5.20;;
76745;SDS011;65671;49.976;20.038;2023-03-24T09:46:56;7.20;;;4.88;;
76745;SDS011;65671;49.976;20.038;2023-03-24T09:49:29;9.43;;;5.47;;
76745;SDS011;65671;49.976;20.038;2023-03-24T09:52:01;5.93;;;4.80;;
76745;SDS011;65671;49.976;20.038;2023-03-24T09:54:31;6.65;;;5.00;;
76745;SDS011;65671;49.976;20.038;2023-03-24T09:57:03;6.65;;;4.72;;
76745;SDS011;65671;49.976;20.038;2023-03-24T09:59:39;7.30;;;4.78;;
76745;SDS011;65671;49.976;20.038;2023-03-24T10:02:12;6.03;;;4.82;;
76745;SDS011;65671;49.976;20.038;2023-03-24T10:04:43;5.82;;;4.72;;
76745;SDS011;65671;49.976;20.038;2023-03-24T10:10:08;6.28;;;4.35;;
76745;SDS011;65671;49.976;20.038;2023-03-24T10:12:48;7.68;;;4.43;;
76745;SDS011;65671;49.976;20.038;2023-03-24T10:18:00;6.93;;;4.28;;
76745;SDS011;65671;49.976;20.038;2023-03-24T10:28:50;5.43;;;4.10;;
76745;SDS011;65671;49.976;20.038;2023-03-24T10:31:27;5.18;;;3.95;;
76745;SDS011;65671;49.976;20.038;2023-03-24T10:33:54;6.95;;;4.28;;
76745;SDS011;65671;49.976;20.038;2023-03-24T10:36:21;6.95;;;3.75;;
76745;SDS011;65671;49.976;20.038;2023-03-24T10:38:49;5.57;;;3.83;;
76745;SDS011;65671;49.976;20.038;2023-03-24T10:41:17;5.20;;;4.20;;
76745;SDS011;65671;49.976;20.038;2023-03-24T10:43:47;5.97;;;4.22;;
76745;SDS011;65671;49.976;20.038;2023-03-24T10:46:16;7.07;;;4.30;;
76745;SDS011;65671;49.976;20.038;2023-03-24T10:48:47;6.38;;;4.32;;
76745;SDS011;65671;49.976;20.038;2023-03-24T10:51:19;6.63;;;4.82;;
76745;SDS011;65671;49.976;20.038;2023-03-24T10:53:50;6.00;;;4.40;;
76745;SDS011;65671;49.976;20.038;2023-03-24T10:56:41;5.00;;;3.67;;
76745;SDS011;65671;49.976;20.038;2023-03-24T10:59:29;5.18;;;3.97;;
76745;SDS011;65671;49.976;20.038;2023-03-24T11:04:33;5.50;;;4.18;;
76745;SDS011;65671;49.976;20.038;2023-03-24T11:07:13;13.35;;;8.82;;
76745;SDS011;65671;49.976;20.038;2023-03-24T11:09:43;5.10;;;3.83;;
76745;SDS011;65671;49.976;20.038;2023-03-24T11:12:29;5.60;;;4.00;;
76745;SDS011;65671;49.976;20.038;2023-03-24T11:15:18;5.45;;;4.00;;
76745;SDS011;65671;49.976;20.038;2023-03-24T11:17:44;4.57;;;3.60;;
76745;SDS011;65671;49.976;20.038;2023-03-24T11:20:15;8.10;;;3.75;;
76745;SDS011;65671;49.976;20.038;2023-03-24T11:22:53;4.60;;;3.40;;
76745;SDS011;65671;49.976;20.038;2023-03-24T11:25:24;5.28;;;3.50;;
76745;SDS011;65671;49.976;20.038;2023-03-24T11:27:53;5.93;;;3.88;;
76745;SDS011;65671;49.976;20.038;2023-03-24T11:30:23;6.13;;;3.63;;
76745;SDS011;65671;49.976;20.038;2023-03-24T11:32:53;5.80;;;4.68;;
76745;SDS011;65671;49.976;20.038;2023-03-24T11:35:19;5.35;;;3.53;;
76745;SDS011;65671;49.976;20.038;2023-03-24T11:37:45;4.28;;;3.15;;
76745;SDS011;65671;49.976;20.038;2023-03-24T11:42:43;3.87;;;2.70;;
76745;SDS011;65671;49.976;20.038;2023-03-24T11:48:13;3.03;;;2.22;;
76745;SDS011;65671;49.976;20.038;2023-03-24T11:50:50;3.78;;;2.75;;
76745;SDS011;65671;49.976;20.038;2023-03-24T11:53:18;3.85;;;2.75;;
76745;SDS011;65671;49.976;20.038;2023-03-24T12:11:59;15.55;;;6.40;;
76745;SDS011;65671;49.976;20.038;2023-03-24T12:14:43;8.15;;;4.47;;
76745;SDS011;65671;49.976;20.038;2023-03-24T12:17:24;4.38;;;3.05;;
76745;SDS011;65671;49.976;20.038;2023-03-24T12:31:12;3.88;;;2.80;;
76745;SDS011;65671;49.976;20.038;2023-03-24T12:52:44;4.78;;;3.45;;
76745;SDS011;65671;49.976;20.038;2023-03-24T12:55:24;4.97;;;3.47;;
76745;SDS011;65671;49.976;20.038;2023-03-24T12:57:55;6.15;;;3.95;;
76745;SDS011;65671;49.976;20.038;2023-03-24T13:00:26;3.60;;;3.17;;
76745;SDS011;65671;49.976;20.038;2023-03-24T13:03:04;5.03;;;3.67;;
76745;SDS011;65671;49.976;20.038;2023-03-24T13:05:38;4.30;;;3.03;;
76745;SDS011;65671;49.976;20.038;2023-03-24T13:08:18;4.68;;;3.70;;
76745;SDS011;65671;49.976;20.038;2023-03-24T13:10:55;6.35;;;3.38;;
76745;SDS011;65671;49.976;20.038;2023-03-24T13:13:36;5.35;;;3.20;;
76745;SDS011;65671;49.976;20.038;2023-03-24T13:16:26;4.10;;;3.10;;
76745;SDS011;65671;49.976;20.038;2023-03-24T13:18:56;4.78;;;3.17;;
76745;SDS011;65671;49.976;20.038;2023-03-24T13:21:24;5.65;;;3.50;;
76745;SDS011;65671;49.976;20.038;2023-03-24T13:29:15;5.95;;;3.72;;
76745;SDS011;65671;49.976;20.038;2023-03-24T13:32:03;3.83;;;2.92;;
76745;SDS011;65671;49.976;20.038;2023-03-24T13:35:04;4.63;;;3.30;;
76745;SDS011;65671;49.976;20.038;2023-03-24T13:37:34;5.30;;;2.90;;
76745;SDS011;65671;49.976;20.038;2023-03-24T13:40:06;4.28;;;2.92;;
76745;SDS011;65671;49.976;20.038;2023-03-24T13:42:43;4.65;;;2.90;;
76745;SDS011;65671;49.976;20.038;2023-03-24T13:46:12;5.03;;;3.15;;
76745;SDS011;65671;49.976;20.038;2023-03-24T13:53:35;4.03;;;2.88;;
76745;SDS011;65671;49.976;20.038;2023-03-24T13:56:04;3.78;;;3.10;;
76745;SDS011;65671;49.976;20.038;2023-03-24T13:58:48;4.35;;;3.17;;
76745;SDS011;65671;49.976;20.038;2023-03-24T14:06:47;4.40;;;3.22;;
76745;SDS011;65671;49.976;20.038;2023-03-24T14:09:25;4.57;;;3.20;;
76745;SDS011;65671;49.976;20.038;2023-03-24T14:14:28;3.97;;;2.75;;
76745;SDS011;65671;49.976;20.038;2023-03-24T14:27:37;5.03;;;3.03;;
76745;SDS011;65671;49.976;20.038;2023-03-24T14:30:26;4.82;;;3.05;;
76745;SDS011;65671;49.976;20.038;2023-03-24T14:32:59;5.20;;;3.28;;
76745;SDS011;65671;49.976;20.038;2023-03-24T14:35:39;6.35;;;3.40;;
76745;SDS011;65671;49.976;20.038;2023-03-24T14:40:46;5.18;;;3.45;;
76745;SDS011;65671;49.976;20.038;2023-03-24T14:43:23;5.15;;;3.83;;
76745;SDS011;65671;49.976;20.038;2023-03-24T14:45:59;5.22;;;3.50;;
76745;SDS011;65671;49.976;20.038;2023-03-24T14:48:33;3.78;;;3.20;;
76745;SDS011;65671;49.976;20.038;2023-03-24T14:51:06;4.22;;;3.08;;
76745;SDS011;65671;49.976;20.038;2023-03-24T14:53:42;4.85;;;3.35;;
76745;SDS011;65671;49.976;20.038;2023-03-24T14:56:11;4.63;;;3.30;;
76745;SDS011;65671;49.976;20.038;2023-03-24T15:01:08;4.75;;;3.20;;
76745;SDS011;65671;49.976;20.038;2023-03-24T15:03:40;5.57;;;3.60;;
76745;SDS011;65671;49.976;20.038;2023-03-24T15:06:23;6.00;;;3.85;;
76745;SDS011;65671;49.976;20.038;2023-03-24T15:08:52;8.45;;;4.75;;
76745;SDS011;65671;49.976;20.038;2023-03-24T15:11:27;6.15;;;4.47;;
76745;SDS011;65671;49.976;20.038;2023-03-24T15:13:56;5.15;;;4.13;;
76745;SDS011;65671;49.976;20.038;2023-03-24T15:16:24;6.72;;;4.80;;
76745;SDS011;65671;49.976;20.038;2023-03-24T15:18:53;7.15;;;4.60;;
76745;SDS011;65671;49.976;20.038;2023-03-24T15:24:00;9.27;;;4.90;;
76745;SDS011;65671;49.976;20.038;2023-03-24T15:26:28;10.25;;;5.38;;
76745;SDS011;65671;49.976;20.038;2023-03-24T15:31:30;13.95;;;7.18;;
76745;SDS011;65671;49.976;20.038;2023-03-24T15:34:06;13.35;;;7.35;;
76745;SDS011;65671;49.976;20.038;2023-03-24T15:36:33;7.28;;;4.75;;
76745;SDS011;65671;49.976;20.038;2023-03-24T15:39:15;7.20;;;4.55;;
76745;SDS011;65671;49.976;20.038;2023-03-24T15:41:42;11.05;;;5.57;;
76745;SDS011;65671;49.976;20.038;2023-03-24T15:44:09;11.48;;;6.30;;
76745;SDS011;65671;49.976;20.038;2023-03-24T15:46:42;12.52;;;6.35;;
76745;SDS011;65671;49.976;20.038;2023-03-24T15:49:15;9.57;;;5.90;;
76745;SDS011;65671;49.976;20.038;2023-03-24T15:51:46;11.50;;;6.85;;
76745;SDS011;65671;49.976;20.038;2023-03-24T15:54:20;10.98;;;6.05;;
76745;SDS011;65671;49.976;20.038;2023-03-24T15:56:58;12.75;;;6.72;;
76745;SDS011;65671;49.976;20.038;2023-03-24T15:59:34;12.15;;;6.43;;
76745;SDS011;65671;49.976;20.038;2023-03-24T16:02:02;8.32;;;5.38;;
76745;SDS011;65671;49.976;20.038;2023-03-24T16:04:34;8.90;;;5.53;;
76745;SDS011;65671;49.976;20.038;2023-03-24T16:06:59;8.00;;;4.63;;
76745;SDS011;65671;49.976;20.038;2023-03-24T16:09:32;9.55;;;4.60;;
76745;SDS011;65671;49.976;20.038;2023-03-24T16:12:02;13.05;;;5.50;;
76745;SDS011;65671;49.976;20.038;2023-03-24T16:14:33;8.80;;;5.68;;
76745;SDS011;65671;49.976;20.038;2023-03-24T16:17:00;11.88;;;6.22;;
76745;SDS011;65671;49.976;20.038;2023-03-24T16:19:27;11.40;;;6.88;;
76745;SDS011;65671;49.976;20.038;2023-03-24T16:21:54;12.05;;;6.60;;
76745;SDS011;65671;49.976;20.038;2023-03-24T16:24:20;12.00;;;6.25;;
76745;SDS011;65671;49.976;20.038;2023-03-24T16:26:45;14.68;;;6.07;;
76745;SDS011;65671;49.976;20.038;2023-03-24T16:29:15;11.45;;;5.72;;
76745;SDS011;65671;49.976;20.038;2023-03-24T16:34:13;14.55;;;7.78;;
76745;SDS011;65671;49.976;20.038;2023-03-24T16:36:42;14.82;;;7.35;;
76745;SDS011;65671;49.976;20.038;2023-03-24T16:39:18;10.20;;;6.15;;
76745;SDS011;65671;49.976;20.038;2023-03-24T16:44:12;7.68;;;5.20;;
76745;SDS011;65671;49.976;20.038;2023-03-24T16:46:38;9.02;;;5.57;;
76745;SDS011;65671;49.976;20.038;2023-03-24T16:49:05;7.05;;;4.78;;
76745;SDS011;65671;49.976;20.038;2023-03-24T16:51:32;9.70;;;5.63;;
76745;SDS011;65671;49.976;20.038;2023-03-24T16:53:59;6.72;;;5.10;;
76745;SDS011;65671;49.976;20.038;2023-03-24T16:56:25;10.68;;;4.72;;
76745;SDS011;65671;49.976;20.038;2023-03-24T16:58:50;8.20;;;5.15;;
76745;SDS011;65671;49.976;20.038;2023-03-24T17:01:33;9.98;;;5.97;;
76745;SDS011;65671;49.976;20.038;2023-03-24T17:04:05;9.05;;;5.70;;
76745;SDS011;65671;49.976;20.038;2023-03-24T17:06:48;7.28;;;4.55;;
76745;SDS011;65671;49.976;20.038;2023-03-24T17:09:16;7.95;;;4.55;;
76745;SDS011;65671;49.976;20.038;2023-03-24T17:11:44;8.57;;;4.88;;
76745;SDS011;65671;49.976;20.038;2023-03-24T17:14:12;9.77;;;3.92;;
76745;SDS011;65671;49.976;20.038;2023-03-24T17:16:39;5.32;;;3.40;;
76745;SDS011;65671;49.976;20.038;2023-03-24T17:19:13;6.70;;;3.58;;
76745;SDS011;65671;49.976;20.038;2023-03-24T17:22:14;5.30;;;3.88;;
76745;SDS011;65671;49.976;20.038;2023-03-24T17:24:33;7.60;;;3.90;;
76745;SDS011;65671;49.976;20.038;2023-03-24T17:27:00;4.60;;;3.10;;
76745;SDS011;65671;49.976;20.038;2023-03-24T17:29:27;6.90;;;4.53;;
76745;SDS011;65671;49.976;20.038;2023-03-24T17:31:53;6.80;;;4.40;;
76745;SDS011;65671;49.976;20.038;2023-03-24T17:34:19;5.88;;;3.65;;
76745;SDS011;65671;49.976;20.038;2023-03-24T17:36:45;5.30;;;3.22;;
76745;SDS011;65671;49.976;20.038;2023-03-24T17:39:15;7.70;;;3.58;;